createdAt,value
2023-08-12T00:01:21.376Z,8.90
2023-08-12T00:03:49.422Z,7.45
2023-08-12T00:06:16.136Z,8.23
2023-08-12T00:08:42.798Z,12.93
2023-08-12T00:11:09.707Z,7.78
2023-08-12T00:13:36.415Z,15.65
2023-08-12T00:16:03.223Z,8.88
2023-08-12T00:18:29.949Z,14.20
2023-08-12T00:20:56.798Z,12.60
2023-08-12T00:23:23.538Z,11.63
2023-08-12T00:25:50.470Z,12.50
2023-08-12T00:28:17.234Z,9.20
2023-08-12T00:30:43.957Z,14.85
2023-08-12T00:33:10.830Z,12.40
2023-08-12T00:35:38.581Z,9.30
2023-08-12T00:38:05.377Z,10.88
2023-08-12T00:40:33.000Z,10.82
2023-08-12T00:42:59.754Z,14.52
2023-08-12T00:45:26.489Z,17.08
2023-08-12T00:47:53.540Z,14.13
2023-08-12T00:50:20.942Z,13.25
2023-08-12T00:52:47.858Z,11.23
2023-08-12T00:55:14.665Z,11.40
2023-08-12T00:57:41.503Z,11.38
2023-08-12T01:00:09.206Z,16.05
2023-08-12T01:02:36.038Z,14.73
2023-08-12T01:05:04.955Z,10.68
2023-08-12T01:07:32.163Z,14.45
2023-08-12T01:09:58.886Z,14.70
2023-08-12T01:12:30.000Z,16.77
2023-08-12T01:15:03.767Z,20.88
2023-08-12T01:17:31.125Z,13.13
2023-08-12T01:19:58.076Z,16.00
2023-08-12T01:22:26.938Z,16.75
2023-08-12T01:24:53.715Z,15.63
2023-08-12T01:27:21.374Z,17.08
2023-08-12T01:29:50.335Z,19.67
2023-08-12T01:32:24.589Z,17.42
2023-08-12T01:35:03.796Z,18.48
2023-08-12T01:37:31.888Z,13.20
2023-08-12T01:40:01.171Z,17.17
2023-08-12T01:42:28.989Z,14.85
2023-08-12T01:44:56.066Z,21.15
2023-08-12T01:47:22.830Z,16.77
2023-08-12T01:49:50.023Z,14.90
2023-08-12T01:52:17.083Z,16.83
2023-08-12T01:54:43.778Z,17.23
2023-08-12T01:57:11.351Z,16.27
2023-08-12T01:59:39.132Z,17.63
2023-08-12T02:02:06.023Z,16.50
2023-08-12T02:04:34.220Z,16.48
2023-08-12T02:07:00.923Z,15.73
2023-08-12T02:09:27.668Z,15.60
2023-08-12T02:11:54.769Z,21.92
2023-08-12T02:14:21.607Z,14.02
2023-08-12T02:16:48.295Z,15.48
2023-08-12T02:19:15.315Z,15.73
2023-08-12T02:21:42.502Z,18.00
2023-08-12T02:24:09.393Z,17.48
2023-08-12T02:26:39.188Z,19.20
2023-08-12T02:29:06.105Z,17.75
2023-08-12T02:31:32.771Z,20.95
2023-08-12T02:33:59.577Z,25.40
2023-08-12T02:36:27.870Z,18.08
2023-08-12T02:38:56.642Z,15.07
2023-08-12T02:41:23.409Z,14.10
2023-08-12T02:43:50.048Z,14.88
2023-08-12T02:46:19.350Z,21.00
2023-08-12T02:48:46.727Z,13.70
2023-08-12T02:51:13.475Z,15.55
2023-08-12T02:53:40.383Z,19.60
2023-08-12T02:56:07.257Z,20.15
2023-08-12T02:58:35.483Z,14.30
2023-08-12T03:01:02.446Z,13.55
2023-08-12T03:03:29.349Z,17.55
2023-08-12T03:05:56.208Z,16.60
2023-08-12T03:08:22.976Z,15.75
2023-08-12T03:10:50.242Z,16.48
2023-08-12T03:13:17.649Z,18.00
2023-08-12T03:15:44.379Z,10.57
2023-08-12T03:18:11.250Z,16.35
2023-08-12T03:20:39.512Z,18.42
2023-08-12T03:23:06.439Z,16.75
2023-08-12T03:25:33.119Z,12.85
2023-08-12T03:27:59.985Z,19.13
2023-08-12T03:30:27.871Z,16.52
2023-08-12T03:32:55.659Z,20.50
2023-08-12T03:35:23.445Z,18.20
2023-08-12T03:37:52.311Z,16.90
2023-08-12T03:40:19.146Z,18.55
2023-08-12T03:42:46.751Z,14.05
2023-08-12T03:45:13.452Z,17.45
2023-08-12T03:47:40.324Z,20.38
2023-08-12T03:50:07.559Z,17.02
2023-08-12T03:52:34.224Z,17.35
2023-08-12T03:55:01.734Z,17.33
2023-08-12T03:57:28.500Z,19.13
2023-08-12T03:59:55.776Z,17.42
2023-08-12T04:02:23.234Z,20.52
2023-08-12T04:04:50.293Z,15.63
2023-08-12T04:07:16.922Z,16.20
2023-08-12T04:09:43.698Z,14.68
2023-08-12T04:12:10.931Z,18.38
2023-08-12T04:14:38.601Z,18.58
2023-08-12T04:17:05.474Z,17.05
2023-08-12T04:19:32.323Z,21.27
2023-08-12T04:21:59.021Z,14.73
2023-08-12T04:24:25.703Z,19.40
2023-08-12T04:26:52.689Z,19.38
2023-08-12T04:29:19.641Z,16.45
2023-08-12T04:31:46.915Z,22.70
2023-08-12T04:34:13.998Z,32.05
2023-08-12T04:36:42.618Z,25.58
2023-08-12T04:39:11.589Z,17.45
2023-08-12T04:41:41.399Z,17.58
2023-08-12T04:44:08.453Z,18.90
2023-08-12T04:46:36.077Z,18.65
2023-08-12T04:49:03.185Z,22.30
2023-08-12T04:51:29.856Z,27.55
2023-08-12T04:53:57.845Z,19.90
2023-08-12T04:56:25.435Z,22.48
2023-08-12T04:58:52.323Z,24.45
2023-08-12T05:01:19.113Z,21.10
2023-08-12T05:03:45.923Z,19.40
2023-08-12T05:06:13.515Z,18.70
2023-08-12T05:08:40.423Z,17.10
2023-08-12T05:11:07.160Z,13.95
2023-08-12T05:13:35.252Z,16.45
2023-08-12T05:16:02.688Z,20.00
2023-08-12T05:18:30.594Z,16.30
2023-08-12T05:20:58.171Z,16.85
2023-08-12T05:23:25.125Z,14.27
2023-08-12T05:25:54.434Z,21.48
2023-08-12T05:28:22.122Z,16.15
2023-08-12T05:30:49.434Z,27.58
2023-08-12T05:33:16.350Z,17.15
2023-08-12T05:35:43.120Z,15.32
2023-08-12T05:38:09.927Z,16.45
2023-08-12T05:40:36.750Z,14.75
2023-08-12T05:43:03.615Z,16.95
2023-08-12T05:45:30.439Z,14.48
2023-08-12T05:47:57.233Z,16.80
2023-08-12T05:50:24.031Z,16.08
2023-08-12T05:52:50.895Z,15.85
2023-08-12T05:55:19.651Z,17.98
2023-08-12T05:57:46.457Z,19.23
2023-08-12T06:00:13.627Z,15.05
2023-08-12T06:02:40.589Z,20.48
2023-08-12T06:05:07.898Z,13.02
2023-08-12T06:07:34.717Z,16.13
2023-08-12T06:10:01.812Z,15.10
2023-08-12T06:12:28.513Z,12.55
2023-08-12T06:14:55.290Z,16.38
2023-08-12T06:17:22.044Z,16.98
2023-08-12T06:19:48.688Z,15.27
2023-08-12T06:22:15.723Z,17.75
2023-08-12T06:24:42.632Z,18.90
2023-08-12T06:27:09.434Z,17.50
2023-08-12T06:29:36.308Z,16.10
2023-08-12T06:32:03.127Z,15.85
2023-08-12T06:34:29.810Z,14.88
2023-08-12T06:36:56.582Z,16.98
2023-08-12T06:39:23.430Z,13.88
2023-08-12T06:41:52.029Z,11.43
2023-08-12T06:44:18.776Z,12.00
2023-08-12T06:46:45.465Z,14.90
2023-08-12T06:49:12.807Z,11.77
2023-08-12T06:51:39.633Z,11.63
2023-08-12T06:54:06.445Z,11.65
2023-08-12T06:56:33.034Z,13.05
2023-08-12T06:58:59.797Z,8.50
2023-08-12T07:01:26.695Z,12.02
2023-08-12T07:03:53.498Z,8.85
2023-08-12T07:06:20.243Z,14.07
2023-08-12T07:08:47.081Z,7.57
2023-08-12T07:11:13.761Z,7.38
2023-08-12T07:13:40.564Z,6.15
2023-08-12T07:16:07.440Z,8.82
2023-08-12T07:18:34.131Z,6.82
2023-08-12T07:21:01.085Z,5.40
2023-08-12T07:23:28.226Z,6.05
2023-08-12T07:25:55.073Z,7.43
2023-08-12T07:28:21.833Z,5.90
2023-08-12T07:30:51.462Z,6.70
2023-08-12T07:33:18.166Z,5.78
2023-08-12T07:35:44.953Z,5.50
2023-08-12T07:41:23.025Z,5.35
2023-08-12T07:43:49.653Z,3.42
2023-08-12T07:46:16.688Z,5.22
2023-08-12T07:48:43.436Z,4.57
2023-08-12T07:51:10.255Z,4.28
2023-08-12T07:53:36.830Z,4.90
2023-08-12T07:56:03.510Z,3.60
2023-08-12T07:58:30.841Z,4.50
2023-08-12T08:00:57.656Z,5.18
2023-08-12T08:03:24.364Z,4.13
2023-08-12T08:05:50.959Z,4.20
2023-08-12T08:08:17.563Z,3.63
2023-08-12T08:10:44.183Z,6.25
2023-08-12T08:13:10.776Z,5.15
2023-08-12T08:15:37.479Z,5.28
2023-08-12T08:18:05.456Z,6.28
2023-08-12T08:20:32.753Z,6.78
2023-08-12T08:22:59.470Z,9.15
2023-08-12T08:25:26.349Z,10.15
2023-08-12T08:27:54.572Z,7.03
2023-08-12T08:30:21.436Z,7.18
2023-08-12T08:32:48.250Z,8.40
2023-08-12T08:35:15.276Z,9.32
2023-08-12T08:37:42.066Z,8.82
2023-08-12T08:40:09.495Z,7.22
2023-08-12T08:42:36.188Z,7.50
2023-08-12T08:45:03.522Z,9.82
2023-08-12T08:47:30.401Z,12.70
2023-08-12T08:49:58.180Z,6.03
2023-08-12T08:52:24.994Z,5.13
2023-08-12T08:54:53.452Z,7.15
2023-08-12T08:57:25.947Z,8.85
2023-08-12T09:00:16.291Z,6.97
2023-08-12T09:02:44.860Z,7.35
2023-08-12T09:05:12.338Z,5.38
2023-08-12T09:07:39.699Z,5.53
2023-08-12T09:10:06.676Z,5.32
2023-08-12T09:12:33.889Z,9.07
2023-08-12T09:15:00.750Z,5.95
2023-08-12T09:17:27.611Z,4.70
2023-08-12T09:19:54.702Z,8.90
2023-08-12T09:22:21.647Z,5.57
2023-08-12T09:24:50.850Z,4.35
2023-08-12T09:27:20.364Z,3.40
2023-08-12T09:29:46.942Z,5.85
2023-08-12T09:32:14.645Z,6.43
2023-08-12T09:34:52.275Z,5.38
2023-08-12T09:37:19.756Z,6.07
2023-08-12T09:39:48.010Z,4.45
2023-08-12T09:42:14.840Z,7.78
2023-08-12T09:44:42.360Z,6.85
2023-08-12T09:47:12.208Z,4.38
2023-08-12T09:49:42.511Z,5.90
2023-08-12T09:52:10.005Z,6.43
2023-08-12T09:54:36.883Z,3.28
2023-08-12T09:57:04.262Z,4.07
2023-08-12T09:59:32.505Z,5.72
2023-08-12T10:01:59.622Z,3.47
2023-08-12T10:04:28.622Z,7.57
2023-08-12T10:06:55.570Z,4.47
2023-08-12T10:09:22.363Z,4.82
2023-08-12T10:11:48.990Z,3.58
2023-08-12T10:14:15.771Z,5.88
2023-08-12T10:16:46.341Z,3.70
2023-08-12T10:19:15.768Z,5.30
2023-08-12T10:21:42.608Z,6.68
2023-08-12T10:24:09.665Z,5.22
2023-08-12T10:26:36.746Z,5.20
2023-08-12T10:29:03.674Z,3.78
2023-08-12T10:31:30.575Z,5.65
2023-08-12T10:34:00.306Z,4.70
2023-08-12T10:36:27.613Z,5.43
2023-08-12T10:38:54.462Z,5.63
2023-08-12T10:41:22.339Z,6.40
2023-08-12T10:43:52.036Z,4.80
2023-08-12T10:46:45.013Z,3.15
2023-08-12T10:49:12.219Z,3.83
2023-08-12T10:51:49.258Z,4.40
2023-08-12T10:54:27.504Z,5.13
2023-08-12T10:57:12.644Z,8.10
2023-08-12T10:59:45.483Z,3.67
2023-08-12T11:02:21.736Z,3.80
2023-08-12T11:04:56.025Z,6.93
2023-08-12T11:07:24.235Z,5.05
2023-08-12T11:09:54.130Z,7.93
2023-08-12T11:12:34.422Z,7.07
2023-08-12T11:15:01.881Z,4.38
2023-08-12T11:17:36.127Z,8.07
2023-08-12T11:20:05.358Z,5.17
2023-08-12T11:22:33.284Z,5.13
2023-08-12T11:25:00.875Z,6.65
2023-08-12T11:27:27.667Z,6.22
2023-08-12T11:29:54.681Z,5.05
2023-08-12T11:32:21.796Z,5.63
2023-08-12T11:34:48.444Z,3.25
2023-08-12T11:37:15.220Z,7.75
2023-08-12T11:39:41.984Z,4.22
2023-08-12T11:42:08.611Z,6.63
2023-08-12T11:44:35.219Z,7.47
2023-08-12T11:47:01.965Z,6.03
2023-08-12T11:49:28.602Z,3.58
2023-08-12T11:51:55.322Z,6.43
2023-08-12T11:54:22.163Z,4.40
2023-08-12T11:56:48.790Z,5.18
2023-08-12T11:59:15.617Z,7.22
2023-08-12T12:01:49.772Z,6.57
2023-08-12T12:04:17.168Z,7.17
2023-08-12T12:06:45.051Z,6.78
2023-08-12T12:09:11.700Z,6.63
2023-08-12T12:11:38.535Z,13.05
2023-08-12T12:14:06.248Z,6.50
2023-08-12T12:16:39.982Z,6.22
2023-08-12T12:19:10.181Z,7.90
2023-08-12T12:21:41.915Z,6.20
2023-08-12T12:24:09.460Z,7.60
2023-08-12T12:26:36.310Z,7.75
2023-08-12T12:29:04.501Z,5.10
2023-08-12T12:31:32.991Z,6.38
2023-08-12T12:33:59.657Z,7.30
2023-08-12T12:36:26.883Z,7.22
2023-08-12T12:38:53.551Z,6.97
2023-08-12T12:41:20.372Z,8.73
2023-08-12T12:43:47.065Z,9.02
2023-08-12T12:46:13.862Z,6.30
2023-08-12T12:48:41.878Z,7.47
2023-08-12T12:51:08.639Z,7.97
2023-08-12T12:53:35.406Z,7.18
2023-08-12T12:56:05.063Z,8.50
2023-08-12T12:58:32.862Z,7.18
2023-08-12T13:00:59.883Z,12.05
2023-08-12T13:03:26.827Z,7.18
2023-08-12T13:05:53.638Z,10.55
2023-08-12T13:08:21.364Z,9.63
2023-08-12T13:10:47.989Z,11.75
2023-08-12T13:13:16.897Z,7.80
2023-08-12T13:15:44.062Z,4.40
2023-08-12T13:18:11.058Z,6.50
2023-08-12T13:20:38.088Z,5.53
2023-08-12T13:23:05.127Z,5.75
2023-08-12T13:25:32.727Z,6.55
2023-08-12T13:28:00.832Z,6.82
2023-08-12T13:30:27.658Z,7.20
2023-08-12T13:32:54.651Z,11.02
2023-08-12T13:35:21.867Z,4.75
2023-08-12T13:37:48.514Z,8.85
2023-08-12T13:40:16.535Z,8.02
2023-08-12T13:42:43.803Z,5.38
2023-08-12T13:45:11.382Z,6.95
2023-08-12T13:47:38.128Z,4.75
2023-08-12T13:50:04.993Z,6.50
2023-08-12T13:52:31.991Z,9.30
2023-08-12T13:54:58.870Z,9.57
2023-08-12T13:57:25.597Z,6.55
2023-08-12T13:59:52.538Z,7.72
2023-08-12T14:02:19.287Z,6.45
2023-08-12T14:04:45.938Z,5.60
2023-08-12T14:07:12.651Z,9.05
2023-08-12T14:09:39.435Z,8.35
2023-08-12T14:12:06.378Z,6.00
2023-08-12T14:14:33.232Z,6.40
2023-08-12T14:16:59.939Z,6.07
2023-08-12T14:19:26.663Z,10.38
2023-08-12T14:21:53.238Z,5.95
2023-08-12T14:24:19.934Z,5.10
2023-08-12T14:26:46.774Z,6.13
2023-08-12T14:29:13.433Z,5.35
2023-08-12T14:31:40.084Z,4.47
2023-08-12T14:34:06.749Z,6.60
2023-08-12T14:36:33.762Z,8.85
2023-08-12T14:39:00.595Z,7.80
2023-08-12T14:41:27.264Z,7.70
2023-08-12T14:43:53.909Z,10.95
2023-08-12T14:46:20.621Z,6.25
2023-08-12T14:48:47.293Z,6.38
2023-08-12T14:51:14.109Z,11.20
2023-08-12T14:53:40.808Z,6.50
2023-08-12T14:56:07.698Z,9.55
2023-08-12T14:58:34.664Z,10.57
2023-08-12T15:01:02.146Z,10.18
2023-08-12T15:03:29.087Z,7.32
2023-08-12T15:06:02.793Z,11.48
2023-08-12T15:08:29.418Z,8.32
2023-08-12T15:10:56.484Z,10.57
2023-08-12T15:13:23.538Z,11.27
2023-08-12T15:15:51.629Z,6.63
2023-08-12T15:18:18.751Z,8.45
2023-08-12T15:20:45.593Z,8.98
2023-08-12T15:23:12.384Z,10.32
2023-08-12T15:25:38.935Z,8.57
2023-08-12T15:28:05.829Z,6.88
2023-08-12T15:30:32.555Z,10.93
2023-08-12T15:32:59.342Z,7.53
2023-08-12T15:35:26.019Z,9.93
2023-08-12T15:37:52.750Z,8.30
2023-08-12T15:40:21.154Z,6.85
2023-08-12T15:42:50.046Z,7.38
2023-08-12T15:45:16.966Z,9.43
2023-08-12T15:47:43.594Z,6.68
2023-08-12T15:50:10.355Z,10.60
2023-08-12T15:52:36.991Z,6.47
2023-08-12T15:55:03.967Z,6.72
2023-08-12T15:57:31.508Z,6.28
2023-08-12T15:59:58.560Z,9.80
2023-08-12T16:02:25.484Z,9.60
2023-08-12T16:04:52.125Z,13.32
2023-08-12T16:07:19.785Z,10.10
2023-08-12T16:09:46.650Z,7.30
2023-08-12T16:12:13.669Z,15.73
2023-08-12T16:14:40.622Z,10.00
2023-08-12T16:17:09.618Z,9.82
2023-08-12T16:19:36.712Z,17.45
2023-08-12T16:22:03.418Z,13.32
2023-08-12T16:24:30.201Z,29.08
2023-08-12T16:26:56.955Z,18.13
2023-08-12T16:29:23.814Z,6.28
2023-08-12T16:31:50.606Z,8.25
2023-08-12T16:34:17.346Z,9.95
2023-08-12T16:36:44.008Z,5.35
2023-08-12T16:39:10.810Z,9.63
2023-08-12T16:41:37.617Z,10.93
2023-08-12T16:44:04.390Z,11.15
2023-08-12T16:46:31.126Z,8.13
2023-08-12T16:48:57.816Z,9.15
2023-08-12T16:51:24.653Z,9.90
2023-08-12T16:53:51.433Z,5.70
2023-08-12T16:56:17.990Z,6.97
2023-08-12T16:58:44.564Z,7.05
2023-08-12T17:01:11.989Z,13.63
2023-08-12T17:03:38.726Z,9.95
2023-08-12T17:06:05.292Z,7.20
2023-08-12T17:08:32.089Z,14.27
2023-08-12T17:10:58.647Z,7.40
2023-08-12T17:13:25.545Z,8.93
2023-08-12T17:15:52.132Z,6.15
2023-08-12T17:18:18.781Z,9.05
2023-08-12T17:20:45.417Z,7.25
2023-08-12T17:23:12.235Z,9.30
2023-08-12T17:25:39.171Z,8.75
2023-08-12T17:28:06.046Z,6.88
2023-08-12T17:30:32.694Z,7.47
2023-08-12T17:32:59.520Z,9.55
2023-08-12T17:35:26.985Z,7.60
2023-08-12T17:37:53.659Z,10.32
2023-08-12T17:40:23.577Z,6.78
2023-08-12T17:42:50.366Z,11.18
2023-08-12T17:45:17.693Z,10.80
2023-08-12T17:47:54.896Z,10.43
2023-08-12T17:50:21.592Z,11.32
2023-08-12T17:52:48.283Z,13.05
2023-08-12T17:55:14.969Z,5.10
2023-08-12T17:57:41.584Z,9.75
2023-08-12T18:00:09.960Z,7.75
2023-08-12T18:02:39.638Z,7.38
2023-08-12T18:05:07.185Z,9.68
2023-08-12T18:07:33.827Z,11.73
2023-08-12T18:10:00.462Z,9.68
2023-08-12T18:12:27.547Z,7.78
2023-08-12T18:14:54.746Z,6.00
2023-08-12T18:17:21.455Z,11.95
2023-08-12T18:19:48.336Z,9.18
2023-08-12T18:22:15.263Z,6.93
2023-08-12T18:24:42.139Z,10.55
2023-08-12T18:27:08.846Z,15.93
2023-08-12T18:29:35.731Z,11.18
2023-08-12T18:32:02.576Z,10.10
2023-08-12T18:34:29.462Z,8.93
2023-08-12T18:36:56.199Z,10.02
2023-08-12T18:39:25.312Z,13.27
2023-08-12T18:41:52.534Z,12.15
2023-08-12T18:44:19.155Z,9.73
2023-08-12T18:46:45.977Z,9.15
2023-08-12T18:49:13.560Z,12.55
2023-08-12T18:51:40.235Z,11.77
2023-08-12T18:54:07.075Z,13.00
2023-08-12T18:56:34.065Z,12.57
2023-08-12T18:59:00.843Z,14.25
2023-08-12T19:01:28.657Z,12.30
2023-08-12T19:03:57.976Z,12.05
2023-08-12T19:06:24.688Z,10.15
2023-08-12T19:08:51.375Z,16.40
2023-08-12T19:11:21.923Z,13.57
2023-08-12T19:13:48.943Z,16.95
2023-08-12T19:16:15.858Z,9.73
2023-08-12T19:18:42.517Z,12.98
2023-08-12T19:21:09.339Z,10.75
2023-08-12T19:23:35.920Z,15.20
2023-08-12T19:26:02.579Z,11.80
2023-08-12T19:28:29.231Z,8.40
2023-08-12T19:30:56.071Z,8.63
2023-08-12T19:33:22.840Z,8.18
2023-08-12T19:35:50.144Z,11.73
2023-08-12T19:38:16.791Z,12.60
2023-08-12T19:40:43.614Z,13.07
2023-08-12T19:43:10.431Z,9.23
2023-08-12T19:45:37.260Z,17.00
2023-08-12T19:48:04.139Z,12.50
2023-08-12T19:50:31.277Z,13.45
2023-08-12T19:52:58.036Z,15.02
2023-08-12T19:55:24.646Z,17.25
2023-08-12T19:57:51.389Z,11.43
2023-08-12T20:00:18.227Z,14.65
2023-08-12T20:02:45.188Z,16.60
2023-08-12T20:05:15.254Z,11.02
2023-08-12T20:07:43.002Z,11.55
2023-08-12T20:10:10.259Z,10.32
2023-08-12T20:12:36.926Z,8.32
2023-08-12T20:15:04.550Z,11.90
2023-08-12T20:17:31.348Z,9.43
2023-08-12T20:19:58.128Z,8.90
2023-08-12T20:22:24.836Z,15.77
2023-08-12T20:24:51.600Z,17.50
2023-08-12T20:27:18.482Z,10.90
2023-08-12T20:29:45.244Z,12.48
2023-08-12T20:32:12.278Z,11.23
2023-08-12T20:34:39.204Z,14.98
2023-08-12T20:37:05.855Z,18.48
2023-08-12T20:39:32.674Z,15.40
2023-08-12T20:41:59.329Z,9.82
2023-08-12T20:44:25.962Z,13.65
2023-08-12T20:46:52.657Z,15.57
2023-08-12T20:49:19.434Z,12.20
2023-08-12T20:51:46.041Z,15.18
2023-08-12T20:54:12.716Z,9.60
2023-08-12T20:56:41.325Z,9.93
2023-08-12T20:59:08.556Z,16.77
2023-08-12T21:01:35.313Z,12.95
2023-08-12T21:04:02.031Z,16.33
2023-08-12T21:06:28.805Z,10.88
2023-08-12T21:08:55.533Z,14.93
2023-08-12T21:11:22.248Z,12.68
2023-08-12T21:13:48.890Z,9.82
2023-08-12T21:16:15.508Z,10.75
2023-08-12T21:18:42.218Z,12.13
2023-08-12T21:21:08.915Z,15.38
2023-08-12T21:23:35.455Z,15.75
2023-08-12T21:26:02.080Z,10.10
2023-08-12T21:28:28.840Z,18.17
2023-08-12T21:30:55.582Z,12.48
2023-08-12T21:33:22.313Z,8.27
2023-08-12T21:35:49.186Z,19.17
2023-08-12T21:38:15.949Z,10.73
2023-08-12T21:40:42.652Z,12.32
2023-08-12T21:43:09.282Z,12.85
2023-08-12T21:45:36.100Z,16.50
2023-08-12T21:48:02.827Z,13.02
2023-08-12T21:50:29.668Z,16.05
2023-08-12T21:52:56.448Z,12.30
2023-08-12T21:55:23.109Z,12.05
2023-08-12T21:57:50.147Z,16.73
2023-08-12T22:00:16.788Z,12.93
2023-08-12T22:02:44.288Z,11.35
2023-08-12T22:05:11.786Z,17.08
2023-08-12T22:07:38.652Z,14.25
2023-08-12T22:10:05.480Z,16.58
2023-08-12T22:12:32.131Z,9.68
2023-08-12T22:14:58.824Z,8.90
2023-08-12T22:17:25.436Z,16.08
2023-08-12T22:19:52.350Z,16.70
2023-08-12T22:22:20.068Z,9.63
2023-08-12T22:24:47.707Z,9.65
2023-08-12T22:27:14.434Z,11.23
2023-08-12T22:29:41.597Z,15.75
2023-08-12T22:32:08.208Z,12.88
2023-08-12T22:34:34.890Z,12.38
2023-08-12T22:37:01.546Z,12.13
2023-08-12T22:39:28.185Z,9.90
2023-08-12T22:41:54.902Z,10.38
2023-08-12T22:44:21.928Z,8.82
2023-08-12T22:46:48.594Z,6.53
2023-08-12T22:49:16.401Z,7.65
2023-08-12T22:51:43.011Z,9.50
2023-08-12T22:54:10.396Z,6.97
2023-08-12T22:56:38.698Z,12.95
2023-08-12T22:59:05.338Z,7.53
2023-08-12T23:01:32.003Z,9.82
2023-08-12T23:03:58.594Z,12.98
2023-08-12T23:06:25.254Z,7.10
2023-08-12T23:08:51.879Z,6.30
2023-08-12T23:11:18.477Z,9.75
2023-08-12T23:13:45.045Z,12.52
2023-08-12T23:16:11.750Z,10.23
2023-08-12T23:18:39.343Z,10.63
2023-08-12T23:21:06.200Z,12.10
2023-08-12T23:23:33.009Z,10.52
2023-08-12T23:25:59.580Z,8.73
2023-08-12T23:28:26.361Z,6.35
2023-08-12T23:30:53.221Z,10.88
2023-08-12T23:33:19.924Z,9.63
2023-08-12T23:35:46.727Z,7.25
2023-08-12T23:38:13.362Z,6.07
2023-08-12T23:40:40.361Z,8.35
2023-08-12T23:43:07.022Z,10.35
2023-08-12T23:45:36.206Z,11.60
2023-08-12T23:48:03.059Z,6.40
2023-08-12T23:50:29.658Z,10.20
2023-08-12T23:52:56.321Z,7.10
2023-08-12T23:55:23.164Z,11.80
2023-08-12T23:57:49.784Z,7.22
